createdAt,value
2023-03-17T00:01:24.088Z,6.35
2023-03-17T00:03:51.659Z,6.35
2023-03-17T00:06:25.381Z,6.53
2023-03-17T00:08:52.254Z,6.54
2023-03-17T00:11:19.171Z,6.55
2023-03-17T00:13:46.351Z,6.58
2023-03-17T00:16:17.623Z,6.50
2023-03-17T00:18:45.851Z,6.39
2023-03-17T00:21:19.727Z,6.28
2023-03-17T00:23:50.789Z,6.47
2023-03-17T00:26:18.733Z,6.39
2023-03-17T00:28:45.954Z,6.30
2023-03-17T00:31:16.791Z,6.17
2023-03-17T00:33:46.615Z,6.22
2023-03-17T00:36:20.408Z,6.22
2023-03-17T00:38:47.531Z,6.14
2023-03-17T00:41:14.734Z,6.20
2023-03-17T00:43:41.945Z,6.41
2023-03-17T00:46:25.598Z,6.43
2023-03-17T00:48:52.919Z,6.40
2023-03-17T00:51:19.725Z,6.43
2023-03-17T00:53:48.007Z,6.38
2023-03-17T00:56:20.914Z,6.31
2023-03-17T00:58:49.207Z,6.28
2023-03-17T01:01:16.484Z,6.14
2023-03-17T01:03:43.383Z,6.20
2023-03-17T01:06:13.204Z,6.10
2023-03-17T01:08:41.190Z,6.05
2023-03-17T01:11:21.575Z,6.17
2023-03-17T01:13:48.430Z,6.08
2023-03-17T01:16:15.889Z,6.17
2023-03-17T01:18:43.607Z,5.90
2023-03-17T01:21:10.605Z,5.90
2023-03-17T01:23:38.030Z,5.92
2023-03-17T01:26:06.981Z,6.09
2023-03-17T01:28:35.037Z,6.13
2023-03-17T01:31:02.981Z,6.24
2023-03-17T01:33:30.039Z,6.26
2023-03-17T01:35:57.617Z,6.24
2023-03-17T01:38:24.831Z,6.41
2023-03-17T01:40:52.288Z,6.42
2023-03-17T01:43:21.569Z,6.32
2023-03-17T01:46:07.418Z,6.27
2023-03-17T01:48:59.706Z,6.01
2023-03-17T01:51:51.490Z,6.06
2023-03-17T01:54:40.057Z,6.14
2023-03-17T01:57:16.741Z,6.10
2023-03-17T01:59:56.099Z,6.11
2023-03-17T02:02:30.186Z,6.09
2023-03-17T02:04:58.142Z,6.14
2023-03-17T02:07:26.708Z,6.22
2023-03-17T02:09:54.963Z,6.15
2023-03-17T02:12:24.725Z,6.02
2023-03-17T02:14:52.874Z,6.21
2023-03-17T02:17:25.230Z,6.21
2023-03-17T02:19:52.422Z,6.15
2023-03-17T02:22:20.537Z,6.10
2023-03-17T02:24:57.086Z,5.83
2023-03-17T02:27:38.761Z,5.94
2023-03-17T02:30:08.553Z,6.17
2023-03-17T02:32:39.058Z,6.08
2023-03-17T02:35:08.541Z,6.17
2023-03-17T02:37:37.524Z,5.99
2023-03-17T02:40:06.041Z,5.97
2023-03-17T02:42:34.200Z,5.91
2023-03-17T02:45:01.256Z,5.92
2023-03-17T02:47:28.208Z,5.80
2023-03-17T02:49:55.552Z,5.87
2023-03-17T02:52:22.360Z,5.69
2023-03-17T02:54:49.209Z,5.72
2023-03-17T02:57:16.034Z,5.72
2023-03-17T02:59:43.337Z,5.49
2023-03-17T03:02:10.354Z,5.58
2023-03-17T03:04:37.645Z,5.54
2023-03-17T03:07:04.620Z,5.50
2023-03-17T03:09:31.410Z,5.56
2023-03-17T03:11:58.180Z,5.63
2023-03-17T03:14:24.942Z,5.56
2023-03-17T03:16:52.412Z,5.71
2023-03-17T03:19:19.399Z,5.84
2023-03-17T03:21:46.439Z,5.67
2023-03-17T03:24:13.377Z,5.40
2023-03-17T03:26:40.170Z,5.60
2023-03-17T03:29:07.042Z,5.42
2023-03-17T03:31:33.896Z,5.36
2023-03-17T03:34:01.084Z,5.35
2023-03-17T03:36:27.869Z,5.36
2023-03-17T03:38:54.728Z,5.67
2023-03-17T03:41:21.965Z,5.52
2023-03-17T03:43:48.850Z,5.56
2023-03-17T03:46:15.930Z,5.54
2023-03-17T03:48:42.800Z,5.49
2023-03-17T03:51:09.763Z,5.56
2023-03-17T03:53:36.667Z,5.67
2023-03-17T03:56:03.626Z,5.55
2023-03-17T03:58:30.392Z,5.81
2023-03-17T04:00:57.294Z,5.73
2023-03-17T04:03:24.131Z,5.54
2023-03-17T04:05:50.972Z,5.19
2023-03-17T04:08:17.836Z,5.25
2023-03-17T04:10:44.693Z,5.35
2023-03-17T04:13:11.576Z,5.69
2023-03-17T04:15:38.413Z,5.58
2023-03-17T04:18:05.453Z,5.81
2023-03-17T04:20:32.929Z,5.58
2023-03-17T04:23:00.189Z,5.24
2023-03-17T04:25:27.128Z,5.45
2023-03-17T04:27:53.921Z,5.48
2023-03-17T04:30:20.754Z,5.68
2023-03-17T04:32:47.723Z,5.48
2023-03-17T04:35:17.449Z,5.71
2023-03-17T04:37:45.051Z,5.69
2023-03-17T04:40:13.481Z,5.66
2023-03-17T04:42:40.974Z,5.26
2023-03-17T04:45:11.332Z,5.23
2023-03-17T04:47:38.280Z,5.22
2023-03-17T04:50:05.592Z,5.21
2023-03-17T04:52:32.408Z,5.08
2023-03-17T04:54:59.237Z,5.03
2023-03-17T04:57:26.140Z,5.27
2023-03-17T04:59:53.001Z,5.44
2023-03-17T05:02:20.069Z,5.37
2023-03-17T05:04:47.851Z,5.45
2023-03-17T05:07:14.859Z,5.60
2023-03-17T05:09:42.099Z,5.53
2023-03-17T05:12:10.278Z,5.53
2023-03-17T05:14:37.711Z,5.56
2023-03-17T05:17:04.724Z,5.56
2023-03-17T05:19:31.617Z,5.64
2023-03-17T05:21:58.621Z,5.54
2023-03-17T05:24:25.810Z,5.52
2023-03-17T05:26:52.652Z,5.67
2023-03-17T05:29:19.500Z,5.69
2023-03-17T05:31:47.478Z,5.64
2023-03-17T05:34:15.344Z,5.72
2023-03-17T05:36:42.564Z,5.91
2023-03-17T05:39:09.452Z,5.78
2023-03-17T05:41:36.408Z,5.76
2023-03-17T05:44:03.575Z,6.00
2023-03-17T05:46:30.859Z,5.93
2023-03-17T05:48:57.880Z,5.98
2023-03-17T05:51:24.719Z,5.95
2023-03-17T05:53:51.767Z,6.06
2023-03-17T05:56:22.027Z,6.05
2023-03-17T05:58:48.965Z,6.08
2023-03-17T06:01:15.896Z,6.16
2023-03-17T06:03:42.858Z,6.15
2023-03-17T06:06:09.721Z,6.26
2023-03-17T06:08:36.539Z,6.19
2023-03-17T06:11:03.327Z,6.24
2023-03-17T06:13:30.455Z,6.15
2023-03-17T06:15:57.633Z,6.07
2023-03-17T06:18:25.149Z,6.31
2023-03-17T06:20:52.120Z,6.23
2023-03-17T06:23:19.145Z,6.18
2023-03-17T06:25:47.755Z,6.27
2023-03-17T06:28:18.584Z,6.24
2023-03-17T06:30:45.688Z,5.87
2023-03-17T06:33:13.322Z,5.94
2023-03-17T06:35:41.067Z,6.05
2023-03-17T06:38:07.942Z,6.13
2023-03-17T06:40:34.889Z,6.26
2023-03-17T06:43:02.190Z,6.11
2023-03-17T06:45:29.553Z,6.18
2023-03-17T06:47:57.125Z,6.17
2023-03-17T06:50:24.077Z,6.68
2023-03-17T06:52:51.001Z,6.81
2023-03-17T06:55:18.114Z,7.08
2023-03-17T06:57:44.930Z,7.19
2023-03-17T07:00:14.276Z,7.10
2023-03-17T07:02:41.521Z,6.91
2023-03-17T07:05:08.857Z,6.78
2023-03-17T07:07:36.287Z,7.15
2023-03-17T07:10:04.065Z,6.99
2023-03-17T07:12:30.945Z,6.72
2023-03-17T07:14:58.319Z,6.73
2023-03-17T07:17:25.744Z,6.81
2023-03-17T07:19:52.635Z,7.60
2023-03-17T07:22:19.454Z,7.44
2023-03-17T07:24:49.228Z,7.62
2023-03-17T07:27:16.924Z,7.94
2023-03-17T07:29:44.227Z,8.02
2023-03-17T07:32:11.428Z,7.85
2023-03-17T07:34:38.284Z,8.02
2023-03-17T07:37:06.968Z,8.31
2023-03-17T07:39:34.064Z,8.31
2023-03-17T07:42:00.969Z,8.17
2023-03-17T07:44:28.014Z,8.16
2023-03-17T07:46:55.363Z,8.25
2023-03-17T07:49:34.277Z,8.35
2023-03-17T07:52:08.570Z,8.38
2023-03-17T07:54:36.374Z,8.80
2023-03-17T07:57:04.224Z,9.01
2023-03-17T07:59:31.799Z,8.95
2023-03-17T08:02:00.236Z,8.85
2023-03-17T08:04:27.753Z,8.73
2023-03-17T08:06:54.981Z,9.04
2023-03-17T08:09:24.693Z,9.04
2023-03-17T08:11:51.781Z,9.16
2023-03-17T08:14:18.971Z,9.48
2023-03-17T08:16:45.933Z,9.45
2023-03-17T08:19:13.299Z,9.72
2023-03-17T08:21:40.970Z,9.80
2023-03-17T08:24:08.103Z,9.94
2023-03-17T08:26:35.012Z,10.05
2023-03-17T08:29:01.911Z,10.19
2023-03-17T08:31:28.947Z,10.22
2023-03-17T08:33:58.629Z,10.04
2023-03-17T08:36:26.186Z,10.05
2023-03-17T08:38:53.283Z,9.60
2023-03-17T08:41:23.893Z,9.57
2023-03-17T08:43:52.497Z,9.47
2023-03-17T08:46:29.098Z,9.94
2023-03-17T08:48:57.392Z,9.86
2023-03-17T08:51:26.887Z,10.26
2023-03-17T08:53:55.076Z,10.14
2023-03-17T08:56:23.116Z,10.02
2023-03-17T08:58:50.999Z,9.97
2023-03-17T09:01:21.031Z,10.07
2023-03-17T09:03:48.760Z,9.86
2023-03-17T09:06:15.862Z,10.28
2023-03-17T09:08:49.799Z,10.30
2023-03-17T09:11:20.428Z,10.52
2023-03-17T09:13:47.907Z,10.55
2023-03-17T09:16:16.328Z,10.68
2023-03-17T09:18:43.851Z,10.44
2023-03-17T09:21:12.792Z,10.56
2023-03-17T09:23:39.896Z,10.35
2023-03-17T09:26:06.997Z,10.56
2023-03-17T09:28:34.242Z,10.29
2023-03-17T09:31:02.858Z,10.47
2023-03-17T09:33:30.093Z,10.57
2023-03-17T09:36:00.154Z,10.60
2023-03-17T09:38:27.829Z,10.61
2023-03-17T09:41:07.947Z,10.56
2023-03-17T09:43:49.753Z,10.83
2023-03-17T09:46:22.311Z,11.09
2023-03-17T09:48:59.895Z,10.69
2023-03-17T09:51:28.660Z,11.05
2023-03-17T09:54:02.519Z,11.21
2023-03-17T09:56:33.472Z,11.39
2023-03-17T09:59:06.610Z,11.59
2023-03-17T10:01:33.526Z,11.41
2023-03-17T10:04:02.859Z,11.56
2023-03-17T10:06:43.720Z,11.79
2023-03-17T10:10:02.994Z,11.88
2023-03-17T10:12:45.524Z,11.47
2023-03-17T10:15:21.760Z,11.37
2023-03-17T10:17:48.807Z,11.77
2023-03-17T10:20:30.427Z,11.91
2023-03-17T10:23:01.744Z,12.03
2023-03-17T10:25:30.943Z,11.98
2023-03-17T10:28:09.114Z,11.98
2023-03-17T10:30:36.042Z,12.18
2023-03-17T10:33:07.008Z,12.01
2023-03-17T10:35:36.454Z,11.92
2023-03-17T10:38:16.966Z,12.36
2023-03-17T10:40:56.531Z,12.07
2023-03-17T10:43:29.470Z,12.26
2023-03-17T10:46:02.493Z,12.33
2023-03-17T10:48:32.209Z,12.35
2023-03-17T10:50:59.320Z,12.49
2023-03-17T10:53:28.474Z,12.65
2023-03-17T10:56:06.966Z,12.55
2023-03-17T10:58:47.105Z,12.75
2023-03-17T11:01:20.621Z,12.47
2023-03-17T11:03:47.995Z,12.77
2023-03-17T11:06:19.178Z,12.58
2023-03-17T11:08:50.788Z,12.96
2023-03-17T11:11:30.989Z,13.11
2023-03-17T11:14:16.310Z,12.85
2023-03-17T11:16:50.882Z,12.46
2023-03-17T11:19:18.945Z,13.02
2023-03-17T11:22:00.772Z,13.01
2023-03-17T11:24:33.543Z,13.45
2023-03-17T11:27:00.785Z,12.63
2023-03-17T11:29:45.786Z,13.01
2023-03-17T11:32:43.896Z,12.21
2023-03-17T11:35:36.865Z,12.81
2023-03-17T11:38:17.146Z,12.82
2023-03-17T11:41:17.345Z,13.16
2023-03-17T11:43:53.046Z,13.66
2023-03-17T11:46:31.110Z,13.77
2023-03-17T11:49:16.308Z,13.74
2023-03-17T11:52:01.735Z,13.78
2023-03-17T11:54:50.752Z,14.08
2023-03-17T11:57:23.588Z,13.93
2023-03-17T12:00:00.920Z,14.02
2023-03-17T12:02:46.165Z,13.72
2023-03-17T12:05:17.571Z,13.64
2023-03-17T12:07:51.467Z,13.99
2023-03-17T12:10:23.347Z,13.85
2023-03-17T12:12:53.288Z,13.59
2023-03-17T12:15:29.612Z,13.71
2023-03-17T12:18:02.946Z,14.03
2023-03-17T12:20:36.114Z,13.78
2023-03-17T12:23:13.676Z,13.49
2023-03-17T12:25:55.133Z,13.27
2023-03-17T12:28:27.832Z,13.20
2023-03-17T12:31:08.221Z,13.32
2023-03-17T12:34:05.337Z,13.33
2023-03-17T12:36:34.469Z,13.17
2023-03-17T12:39:09.420Z,13.55
2023-03-17T12:42:13.713Z,13.32
2023-03-17T12:44:43.515Z,13.46
2023-03-17T12:47:29.025Z,13.50
2023-03-17T12:50:17.351Z,13.25
2023-03-17T12:53:05.591Z,13.40
2023-03-17T12:55:36.177Z,13.48
2023-03-17T12:58:26.559Z,13.60
2023-03-17T13:01:28.832Z,13.19
2023-03-17T13:04:01.678Z,13.39
2023-03-17T13:06:39.924Z,13.64
2023-03-17T13:09:30.303Z,13.23
2023-03-17T13:12:00.305Z,13.72
2023-03-17T13:14:45.983Z,14.03
2023-03-17T13:17:23.954Z,13.88
2023-03-17T13:20:18.308Z,13.63
2023-03-17T13:23:12.377Z,13.72
2023-03-17T13:25:39.225Z,13.59
2023-03-17T13:28:12.248Z,13.57
2023-03-17T13:30:39.166Z,13.57
2023-03-17T13:33:12.074Z,13.51
2023-03-17T13:35:51.813Z,13.45
2023-03-17T13:39:04.921Z,13.76
2023-03-17T13:41:40.268Z,13.39
2023-03-17T13:44:50.237Z,13.42
2023-03-17T13:47:23.020Z,13.24
2023-03-17T13:49:54.058Z,13.34
2023-03-17T13:52:54.626Z,13.36
2023-03-17T13:55:24.425Z,13.40
2023-03-17T13:58:15.746Z,13.26
2023-03-17T14:00:49.525Z,13.38
2023-03-17T14:03:29.056Z,13.50
2023-03-17T14:05:56.563Z,13.73
2023-03-17T14:08:29.903Z,13.56
2023-03-17T14:11:02.267Z,13.67
2023-03-17T14:13:56.207Z,13.54
2023-03-17T14:16:28.122Z,13.13
2023-03-17T14:19:08.577Z,13.25
2023-03-17T14:21:36.143Z,13.03
2023-03-17T14:24:21.809Z,12.56
2023-03-17T14:26:50.328Z,12.76
2023-03-17T14:29:20.183Z,12.90
2023-03-17T14:31:52.494Z,12.19
2023-03-17T14:34:22.138Z,12.31
2023-03-17T14:36:51.450Z,11.84
2023-03-17T14:39:23.853Z,12.27
2023-03-17T14:42:02.366Z,11.80
2023-03-17T14:44:37.768Z,11.92
2023-03-17T14:47:12.891Z,11.97
2023-03-17T14:49:39.950Z,11.93
2023-03-17T14:52:07.251Z,11.82
2023-03-17T14:54:35.872Z,11.94
2023-03-17T14:57:07.346Z,11.62
2023-03-17T14:59:36.170Z,11.69
2023-03-17T15:02:17.253Z,11.64
2023-03-17T15:04:53.842Z,11.66
2023-03-17T15:07:39.977Z,11.84
2023-03-17T15:10:18.184Z,11.34
2023-03-17T15:12:46.781Z,11.34
2023-03-17T15:15:30.852Z,11.00
2023-03-17T15:18:01.254Z,11.08
2023-03-17T15:20:31.178Z,11.27
2023-03-17T15:23:03.038Z,11.17
2023-03-17T15:25:38.453Z,11.03
2023-03-17T15:28:12.473Z,10.70
2023-03-17T15:30:48.404Z,10.57
2023-03-17T15:33:37.405Z,10.39
2023-03-17T15:36:06.285Z,10.36
2023-03-17T15:38:34.526Z,10.63
2023-03-17T15:41:01.371Z,10.68
2023-03-17T15:43:28.225Z,10.64
2023-03-17T15:46:00.153Z,10.70
2023-03-17T15:48:29.940Z,10.46
2023-03-17T15:51:00.165Z,10.03
2023-03-17T15:53:27.745Z,9.98
2023-03-17T15:55:54.740Z,10.07
2023-03-17T15:58:22.178Z,10.04
2023-03-17T16:00:55.233Z,9.96
2023-03-17T16:03:29.813Z,9.94
2023-03-17T16:05:56.893Z,9.76
2023-03-17T16:08:25.024Z,9.77
2023-03-17T16:10:52.373Z,9.86
2023-03-17T16:13:19.555Z,9.43
2023-03-17T16:16:00.149Z,9.53
2023-03-17T16:18:35.219Z,9.36
2023-03-17T16:21:04.057Z,9.47
2023-03-17T16:23:37.464Z,9.37
2023-03-17T16:26:14.875Z,9.43
2023-03-17T16:28:44.763Z,9.60
2023-03-17T16:31:31.786Z,9.59
2023-03-17T16:33:58.931Z,9.54
2023-03-17T16:36:26.321Z,9.53
2023-03-17T16:38:53.665Z,9.23
2023-03-17T16:41:27.419Z,8.79
2023-03-17T16:44:00.384Z,8.62
2023-03-17T16:46:33.349Z,8.63
2023-03-17T16:49:02.032Z,8.69
2023-03-17T16:51:28.873Z,8.66
2023-03-17T16:53:55.873Z,8.63
2023-03-17T16:56:25.016Z,8.64
2023-03-17T16:58:52.050Z,8.51
2023-03-17T17:01:25.358Z,8.24
2023-03-17T17:03:52.665Z,8.30
2023-03-17T17:06:21.165Z,8.30
2023-03-17T17:08:48.962Z,8.33
2023-03-17T17:11:17.674Z,8.28
2023-03-17T17:13:46.618Z,8.28
2023-03-17T17:16:30.469Z,8.15
2023-03-17T17:18:59.098Z,8.17
2023-03-17T17:21:26.530Z,8.21
2023-03-17T17:23:53.956Z,8.03
2023-03-17T17:26:21.656Z,8.10
2023-03-17T17:28:48.772Z,8.17
2023-03-17T17:31:15.773Z,8.24
2023-03-17T17:33:42.657Z,8.12
2023-03-17T17:36:15.650Z,8.15
2023-03-17T17:38:43.084Z,8.04
2023-03-17T17:41:11.359Z,7.94
2023-03-17T17:43:38.497Z,7.97
2023-03-17T17:46:11.760Z,7.97
2023-03-17T17:48:38.669Z,7.80
2023-03-17T17:51:05.865Z,7.90
2023-03-17T17:53:32.703Z,7.91
2023-03-17T17:55:59.553Z,7.96
2023-03-17T17:58:26.715Z,7.53
2023-03-17T18:00:55.510Z,7.64
2023-03-17T18:03:25.260Z,7.58
2023-03-17T18:05:56.845Z,7.52
2023-03-17T18:08:25.262Z,7.45
2023-03-17T18:10:52.584Z,7.67
2023-03-17T18:13:19.598Z,7.69
2023-03-17T18:15:47.012Z,7.72
2023-03-17T18:18:14.170Z,7.67
2023-03-17T18:20:41.111Z,7.85
2023-03-17T18:23:08.419Z,7.67
2023-03-17T18:25:37.213Z,7.46
2023-03-17T18:28:04.483Z,7.37
2023-03-17T18:30:34.807Z,7.17
2023-03-17T18:33:09.664Z,7.21
2023-03-17T18:35:37.488Z,7.24
2023-03-17T18:38:04.349Z,7.23
2023-03-17T18:40:31.355Z,7.33
2023-03-17T18:42:58.234Z,7.38
2023-03-17T18:45:25.220Z,7.53
2023-03-17T18:47:52.068Z,7.49
2023-03-17T18:50:21.846Z,7.30
2023-03-17T18:52:49.130Z,7.40
2023-03-17T18:55:17.217Z,7.46
2023-03-17T18:57:44.910Z,7.21
2023-03-17T19:00:13.970Z,7.29
2023-03-17T19:02:40.945Z,7.23
2023-03-17T19:05:08.635Z,7.20
2023-03-17T19:07:39.006Z,7.06
2023-03-17T19:10:07.689Z,7.08
2023-03-17T19:12:34.527Z,7.15
2023-03-17T19:15:01.882Z,7.17
2023-03-17T19:17:28.814Z,7.15
2023-03-17T19:19:55.998Z,7.14
2023-03-17T19:22:23.247Z,7.07
2023-03-17T19:24:50.514Z,7.42
2023-03-17T19:27:17.774Z,7.17
2023-03-17T19:29:44.945Z,7.15
2023-03-17T19:32:12.235Z,7.21
2023-03-17T19:34:39.092Z,6.93
2023-03-17T19:37:05.985Z,7.11
2023-03-17T19:39:33.983Z,6.94
2023-03-17T19:42:01.175Z,6.79
2023-03-17T19:44:28.119Z,6.78
2023-03-17T19:46:55.038Z,6.67
2023-03-17T19:49:22.454Z,6.74
2023-03-17T19:51:50.054Z,6.71
2023-03-17T19:54:18.730Z,6.66
2023-03-17T19:56:45.972Z,6.41
2023-03-17T19:59:12.919Z,6.31
2023-03-17T20:01:40.232Z,6.29
2023-03-17T20:04:08.995Z,6.41
2023-03-17T20:06:37.159Z,6.44
2023-03-17T20:09:04.542Z,6.59
2023-03-17T20:11:34.168Z,6.54
2023-03-17T20:14:02.354Z,6.85
2023-03-17T20:16:32.795Z,7.15
2023-03-17T20:19:00.930Z,7.42
2023-03-17T20:21:28.371Z,7.20
2023-03-17T20:23:55.653Z,7.06
2023-03-17T20:26:22.926Z,7.16
2023-03-17T20:28:49.790Z,7.25
2023-03-17T20:31:17.247Z,7.08
2023-03-17T20:33:44.155Z,7.04
2023-03-17T20:36:12.731Z,7.12
2023-03-17T20:38:40.728Z,7.27
2023-03-17T20:41:10.149Z,7.09
2023-03-17T20:43:38.357Z,7.42
2023-03-17T20:46:07.320Z,7.70
2023-03-17T20:48:37.901Z,7.57
2023-03-17T20:51:06.409Z,7.73
2023-03-17T20:53:34.452Z,7.49
2023-03-17T20:56:01.311Z,7.96
2023-03-17T20:58:29.005Z,7.74
2023-03-17T21:00:57.192Z,7.63
2023-03-17T21:03:24.247Z,7.71
2023-03-17T21:05:51.273Z,7.53
2023-03-17T21:08:19.002Z,7.80
2023-03-17T21:10:45.858Z,7.39
2023-03-17T21:13:12.993Z,7.22
2023-03-17T21:15:41.166Z,7.16
2023-03-17T21:18:08.921Z,7.16
2023-03-17T21:20:35.795Z,7.12
2023-03-17T21:23:04.674Z,7.29
2023-03-17T21:25:31.583Z,7.18
2023-03-17T21:28:00.185Z,7.22
2023-03-17T21:30:27.082Z,7.04
2023-03-17T21:32:54.990Z,6.86
2023-03-17T21:35:24.172Z,6.92
2023-03-17T21:37:51.821Z,6.81
2023-03-17T21:40:19.091Z,6.81
2023-03-17T21:42:46.045Z,6.74
2023-03-17T21:45:13.973Z,6.57
2023-03-17T21:47:41.424Z,6.72
2023-03-17T21:50:09.007Z,6.68
2023-03-17T21:52:35.964Z,6.40
2023-03-17T21:55:03.559Z,6.32
2023-03-17T21:57:30.962Z,6.32
2023-03-17T21:59:57.824Z,6.45
2023-03-17T22:02:24.679Z,6.47
2023-03-17T22:04:51.525Z,6.32
2023-03-17T22:07:18.531Z,6.33
2023-03-17T22:09:45.460Z,6.35
2023-03-17T22:12:12.501Z,6.19
2023-03-17T22:14:39.731Z,6.65
2023-03-17T22:17:06.693Z,6.36
2023-03-17T22:19:33.528Z,6.28
2023-03-17T22:22:00.357Z,6.17
2023-03-17T22:24:27.562Z,6.56
2023-03-17T22:26:55.821Z,6.56
2023-03-17T22:29:22.702Z,6.50
2023-03-17T22:31:49.656Z,6.41
2023-03-17T22:34:17.432Z,6.55
2023-03-17T22:36:44.318Z,6.58
2023-03-17T22:39:11.970Z,6.66
2023-03-17T22:41:39.219Z,6.68
2023-03-17T22:44:08.485Z,6.66
2023-03-17T22:46:36.958Z,6.65
2023-03-17T22:49:04.813Z,6.65
2023-03-17T22:51:31.818Z,6.54
2023-03-17T22:53:58.683Z,6.56
2023-03-17T22:56:26.583Z,6.35
2023-03-17T22:58:54.597Z,6.37
2023-03-17T23:01:25.222Z,6.38
2023-03-17T23:03:53.770Z,6.33
2023-03-17T23:06:21.298Z,6.29
2023-03-17T23:08:48.114Z,6.66
2023-03-17T23:11:23.877Z,6.62
2023-03-17T23:13:52.640Z,6.32
2023-03-17T23:16:20.479Z,6.25
2023-03-17T23:18:47.337Z,6.15
2023-03-17T23:21:30.035Z,6.15
2023-03-17T23:23:57.348Z,6.57
2023-03-17T23:26:24.319Z,6.44
2023-03-17T23:28:51.929Z,6.08
2023-03-17T23:31:19.674Z,6.21
2023-03-17T23:33:47.510Z,6.22
2023-03-17T23:36:15.625Z,6.21
2023-03-17T23:38:42.841Z,6.18
2023-03-17T23:41:11.406Z,6.25
2023-03-17T23:43:38.500Z,6.10
2023-03-17T23:46:05.827Z,6.23
2023-03-17T23:48:33.090Z,6.47
2023-03-17T23:50:59.931Z,6.12
2023-03-17T23:53:28.030Z,6.49
2023-03-17T23:55:54.897Z,6.42
2023-03-17T23:58:22.956Z,6.19
